sensor_id;sensor_type;location;lat;lon;timestamp;P1;durP1;ratioP1;P2;durP2;ratioP2
1691;SDS011;843;52.054;8.552;2023-05-07T00:00:39;26.97;;;23.53;;
1691;SDS011;843;52.054;8.552;2023-05-07T00:03:07;28.43;;;22.30;;
1691;SDS011;843;52.054;8.552;2023-05-07T00:05:34;24.90;;;20.30;;
1691;SDS011;843;52.054;8.552;2023-05-07T00:08:01;24.37;;;20.87;;
1691;SDS011;843;52.054;8.552;2023-05-07T00:10:27;25.17;;;22.10;;
1691;SDS011;843;52.054;8.552;2023-05-07T00:12:55;25.03;;;21.47;;
1691;SDS011;843;52.054;8.552;2023-05-07T00:15:21;28.30;;;24.03;;
1691;SDS011;843;52.054;8.552;2023-05-07T00:17:48;28.60;;;21.77;;
1691;SDS011;843;52.054;8.552;2023-05-07T00:20:15;26.47;;;23.67;;
1691;SDS011;843;52.054;8.552;2023-05-07T00:22:41;22.83;;;20.30;;
1691;SDS011;843;52.054;8.552;2023-05-07T00:25:08;25.57;;;21.97;;
1691;SDS011;843;52.054;8.552;2023-05-07T00:27:35;26.33;;;23.53;;
1691;SDS011;843;52.054;8.552;2023-05-07T00:30:03;28.53;;;23.30;;
1691;SDS011;843;52.054;8.552;2023-05-07T00:32:30;26.67;;;23.53;;
1691;SDS011;843;52.054;8.552;2023-05-07T00:34:56;28.67;;;24.50;;
1691;SDS011;843;52.054;8.552;2023-05-07T00:37:22;25.73;;;21.70;;
1691;SDS011;843;52.054;8.552;2023-05-07T00:39:49;26.97;;;23.97;;
1691;SDS011;843;52.054;8.552;2023-05-07T00:42:15;26.63;;;22.97;;
1691;SDS011;843;52.054;8.552;2023-05-07T00:44:42;28.30;;;22.33;;
1691;SDS011;843;52.054;8.552;2023-05-07T00:47:09;28.93;;;21.50;;
1691;SDS011;843;52.054;8.552;2023-05-07T00:49:38;24.43;;;21.73;;
1691;SDS011;843;52.054;8.552;2023-05-07T00:52:05;27.43;;;24.53;;
1691;SDS011;843;52.054;8.552;2023-05-07T00:54:32;27.33;;;22.80;;
1691;SDS011;843;52.054;8.552;2023-05-07T00:56:58;25.87;;;21.70;;
1691;SDS011;843;52.054;8.552;2023-05-07T00:59:25;28.83;;;23.53;;
1691;SDS011;843;52.054;8.552;2023-05-07T01:01:51;29.33;;;22.00;;
1691;SDS011;843;52.054;8.552;2023-05-07T01:04:19;32.57;;;23.50;;
1691;SDS011;843;52.054;8.552;2023-05-07T01:06:46;26.43;;;23.40;;
1691;SDS011;843;52.054;8.552;2023-05-07T01:09:13;28.70;;;24.37;;
1691;SDS011;843;52.054;8.552;2023-05-07T01:11:40;27.73;;;23.53;;
1691;SDS011;843;52.054;8.552;2023-05-07T01:14:07;27.23;;;23.13;;
1691;SDS011;843;52.054;8.552;2023-05-07T01:16:34;28.20;;;23.77;;
1691;SDS011;843;52.054;8.552;2023-05-07T01:19:01;29.60;;;24.00;;
1691;SDS011;843;52.054;8.552;2023-05-07T01:21:29;29.33;;;23.97;;
1691;SDS011;843;52.054;8.552;2023-05-07T01:24:00;32.40;;;24.47;;
1691;SDS011;843;52.054;8.552;2023-05-07T01:26:27;29.00;;;25.60;;
1691;SDS011;843;52.054;8.552;2023-05-07T01:28:53;31.90;;;24.47;;
1691;SDS011;843;52.054;8.552;2023-05-07T01:31:20;27.07;;;22.70;;
1691;SDS011;843;52.054;8.552;2023-05-07T01:33:46;29.73;;;22.87;;
1691;SDS011;843;52.054;8.552;2023-05-07T01:36:14;27.03;;;24.07;;
1691;SDS011;843;52.054;8.552;2023-05-07T01:38:42;26.50;;;22.70;;
1691;SDS011;843;52.054;8.552;2023-05-07T01:41:10;26.00;;;21.60;;
1691;SDS011;843;52.054;8.552;2023-05-07T01:43:37;29.93;;;25.57;;
1691;SDS011;843;52.054;8.552;2023-05-07T01:46:04;32.50;;;26.43;;
1691;SDS011;843;52.054;8.552;2023-05-07T01:48:30;31.60;;;26.60;;
1691;SDS011;843;52.054;8.552;2023-05-07T01:50:57;28.87;;;24.33;;
1691;SDS011;843;52.054;8.552;2023-05-07T01:53:25;28.83;;;24.77;;
1691;SDS011;843;52.054;8.552;2023-05-07T01:55:53;31.20;;;24.63;;
1691;SDS011;843;52.054;8.552;2023-05-07T01:58:21;29.73;;;26.40;;
1691;SDS011;843;52.054;8.552;2023-05-07T02:00:47;30.77;;;26.00;;
1691;SDS011;843;52.054;8.552;2023-05-07T02:03:14;30.43;;;27.17;;
1691;SDS011;843;52.054;8.552;2023-05-07T02:05:40;31.60;;;26.10;;
1691;SDS011;843;52.054;8.552;2023-05-07T02:08:07;30.60;;;24.17;;
1691;SDS011;843;52.054;8.552;2023-05-07T02:10:33;27.33;;;23.67;;
1691;SDS011;843;52.054;8.552;2023-05-07T02:13:01;32.67;;;25.73;;
1691;SDS011;843;52.054;8.552;2023-05-07T02:15:28;29.07;;;25.37;;
1691;SDS011;843;52.054;8.552;2023-05-07T02:17:58;34.03;;;25.70;;
1691;SDS011;843;52.054;8.552;2023-05-07T02:20:25;33.80;;;25.33;;
1691;SDS011;843;52.054;8.552;2023-05-07T02:22:51;30.70;;;25.00;;
1691;SDS011;843;52.054;8.552;2023-05-07T02:25:18;31.27;;;24.23;;
1691;SDS011;843;52.054;8.552;2023-05-07T02:27:44;32.03;;;24.70;;
1691;SDS011;843;52.054;8.552;2023-05-07T02:30:11;27.93;;;24.43;;
1691;SDS011;843;52.054;8.552;2023-05-07T02:32:39;31.03;;;24.23;;
1691;SDS011;843;52.054;8.552;2023-05-07T02:35:05;30.20;;;25.33;;
1691;SDS011;843;52.054;8.552;2023-05-07T02:37:32;30.87;;;25.20;;
1691;SDS011;843;52.054;8.552;2023-05-07T02:39:58;30.63;;;27.30;;
1691;SDS011;843;52.054;8.552;2023-05-07T02:42:24;31.63;;;25.80;;
1691;SDS011;843;52.054;8.552;2023-05-07T02:44:51;29.97;;;25.00;;
1691;SDS011;843;52.054;8.552;2023-05-07T02:47:17;31.33;;;25.60;;
1691;SDS011;843;52.054;8.552;2023-05-07T02:49:45;31.93;;;25.30;;
1691;SDS011;843;52.054;8.552;2023-05-07T02:52:12;27.70;;;23.70;;
1691;SDS011;843;52.054;8.552;2023-05-07T02:54:38;31.73;;;27.47;;
1691;SDS011;843;52.054;8.552;2023-05-07T02:57:04;29.70;;;24.13;;
1691;SDS011;843;52.054;8.552;2023-05-07T02:59:31;33.63;;;25.53;;
1691;SDS011;843;52.054;8.552;2023-05-07T03:01:57;29.00;;;24.50;;
1691;SDS011;843;52.054;8.552;2023-05-07T03:04:24;32.07;;;25.00;;
1691;SDS011;843;52.054;8.552;2023-05-07T03:06:52;29.60;;;25.37;;
1691;SDS011;843;52.054;8.552;2023-05-07T03:09:18;32.47;;;26.13;;
1691;SDS011;843;52.054;8.552;2023-05-07T03:11:44;31.77;;;26.70;;
1691;SDS011;843;52.054;8.552;2023-05-07T03:14:11;30.23;;;23.70;;
1691;SDS011;843;52.054;8.552;2023-05-07T03:16:37;31.60;;;25.10;;
1691;SDS011;843;52.054;8.552;2023-05-07T03:19:04;32.53;;;27.30;;
1691;SDS011;843;52.054;8.552;2023-05-07T03:21:31;36.10;;;26.50;;
1691;SDS011;843;52.054;8.552;2023-05-07T03:24:00;31.87;;;24.50;;
1691;SDS011;843;52.054;8.552;2023-05-07T03:26:26;33.17;;;28.00;;
1691;SDS011;843;52.054;8.552;2023-05-07T03:28:53;31.23;;;26.40;;
1691;SDS011;843;52.054;8.552;2023-05-07T03:31:20;31.23;;;26.00;;
1691;SDS011;843;52.054;8.552;2023-05-07T03:33:50;34.30;;;24.70;;
1691;SDS011;843;52.054;8.552;2023-05-07T03:36:17;36.17;;;27.30;;
1691;SDS011;843;52.054;8.552;2023-05-07T03:38:43;30.93;;;25.90;;
1691;SDS011;843;52.054;8.552;2023-05-07T03:41:11;31.23;;;27.87;;
1691;SDS011;843;52.054;8.552;2023-05-07T03:43:38;32.10;;;26.33;;
1691;SDS011;843;52.054;8.552;2023-05-07T03:46:04;30.17;;;26.10;;
1691;SDS011;843;52.054;8.552;2023-05-07T03:48:31;32.60;;;25.97;;
1691;SDS011;843;52.054;8.552;2023-05-07T03:50:57;36.57;;;28.00;;
1691;SDS011;843;52.054;8.552;2023-05-07T03:53:24;32.67;;;26.90;;
1691;SDS011;843;52.054;8.552;2023-05-07T03:55:50;36.30;;;29.60;;
1691;SDS011;843;52.054;8.552;2023-05-07T03:58:18;35.83;;;26.13;;
1691;SDS011;843;52.054;8.552;2023-05-07T04:00:45;35.30;;;30.93;;
1691;SDS011;843;52.054;8.552;2023-05-07T04:03:11;29.93;;;25.37;;
1691;SDS011;843;52.054;8.552;2023-05-07T04:05:37;34.93;;;27.23;;
1691;SDS011;843;52.054;8.552;2023-05-07T04:08:04;40.87;;;28.67;;
1691;SDS011;843;52.054;8.552;2023-05-07T04:10:31;32.27;;;25.73;;
1691;SDS011;843;52.054;8.552;2023-05-07T04:12:57;34.50;;;26.93;;
1691;SDS011;843;52.054;8.552;2023-05-07T04:15:25;35.07;;;25.83;;
1691;SDS011;843;52.054;8.552;2023-05-07T04:17:51;34.10;;;28.37;;
1691;SDS011;843;52.054;8.552;2023-05-07T04:20:18;37.77;;;26.03;;
1691;SDS011;843;52.054;8.552;2023-05-07T04:22:44;36.10;;;27.27;;
1691;SDS011;843;52.054;8.552;2023-05-07T04:25:11;34.20;;;27.40;;
1691;SDS011;843;52.054;8.552;2023-05-07T04:27:37;35.37;;;25.47;;
1691;SDS011;843;52.054;8.552;2023-05-07T04:30:04;34.60;;;27.80;;
1691;SDS011;843;52.054;8.552;2023-05-07T04:32:33;30.43;;;26.37;;
1691;SDS011;843;52.054;8.552;2023-05-07T04:34:59;32.43;;;28.93;;
1691;SDS011;843;52.054;8.552;2023-05-07T04:37:25;32.33;;;27.30;;
1691;SDS011;843;52.054;8.552;2023-05-07T04:39:52;36.47;;;27.50;;
1691;SDS011;843;52.054;8.552;2023-05-07T04:42:18;33.77;;;28.17;;
1691;SDS011;843;52.054;8.552;2023-05-07T04:44:45;38.40;;;29.80;;
1691;SDS011;843;52.054;8.552;2023-05-07T04:47:11;35.07;;;27.07;;
1691;SDS011;843;52.054;8.552;2023-05-07T04:49:39;36.50;;;26.07;;
1691;SDS011;843;52.054;8.552;2023-05-07T04:52:05;31.40;;;25.17;;
1691;SDS011;843;52.054;8.552;2023-05-07T04:54:32;36.73;;;29.53;;
1691;SDS011;843;52.054;8.552;2023-05-07T04:56:58;37.30;;;28.87;;
1691;SDS011;843;52.054;8.552;2023-05-07T04:59:25;39.87;;;29.20;;
1691;SDS011;843;52.054;8.552;2023-05-07T05:01:51;38.30;;;28.60;;
1691;SDS011;843;52.054;8.552;2023-05-07T05:04:17;35.93;;;28.60;;
1691;SDS011;843;52.054;8.552;2023-05-07T05:06:45;36.20;;;28.97;;
1691;SDS011;843;52.054;8.552;2023-05-07T05:09:11;38.77;;;29.20;;
1691;SDS011;843;52.054;8.552;2023-05-07T05:11:39;43.67;;;28.33;;
1691;SDS011;843;52.054;8.552;2023-05-07T05:14:05;36.03;;;26.83;;
1691;SDS011;843;52.054;8.552;2023-05-07T05:16:32;36.03;;;27.40;;
1691;SDS011;843;52.054;8.552;2023-05-07T05:18:59;34.87;;;27.67;;
1691;SDS011;843;52.054;8.552;2023-05-07T05:21:25;35.67;;;27.00;;
1691;SDS011;843;52.054;8.552;2023-05-07T05:23:53;36.07;;;30.47;;
1691;SDS011;843;52.054;8.552;2023-05-07T05:26:19;43.10;;;30.53;;
1691;SDS011;843;52.054;8.552;2023-05-07T05:28:46;31.33;;;27.90;;
1691;SDS011;843;52.054;8.552;2023-05-07T05:31:13;35.97;;;29.30;;
1691;SDS011;843;52.054;8.552;2023-05-07T05:33:39;36.90;;;27.30;;
1691;SDS011;843;52.054;8.552;2023-05-07T05:36:06;32.13;;;25.70;;
1691;SDS011;843;52.054;8.552;2023-05-07T05:38:32;40.30;;;30.97;;
1691;SDS011;843;52.054;8.552;2023-05-07T05:41:00;33.43;;;27.40;;
1691;SDS011;843;52.054;8.552;2023-05-07T05:43:26;38.97;;;27.30;;
1691;SDS011;843;52.054;8.552;2023-05-07T05:45:53;36.83;;;28.10;;
1691;SDS011;843;52.054;8.552;2023-05-07T05:48:19;41.13;;;28.53;;
1691;SDS011;843;52.054;8.552;2023-05-07T05:50:46;33.03;;;26.93;;
1691;SDS011;843;52.054;8.552;2023-05-07T05:53:12;36.57;;;26.90;;
1691;SDS011;843;52.054;8.552;2023-05-07T05:55:38;32.53;;;27.60;;
1691;SDS011;843;52.054;8.552;2023-05-07T05:58:06;33.03;;;25.90;;
1691;SDS011;843;52.054;8.552;2023-05-07T06:00:33;34.20;;;25.20;;
1691;SDS011;843;52.054;8.552;2023-05-07T06:02:59;34.87;;;28.10;;
1691;SDS011;843;52.054;8.552;2023-05-07T06:05:26;32.37;;;25.60;;
1691;SDS011;843;52.054;8.552;2023-05-07T06:07:52;31.43;;;25.40;;
1691;SDS011;843;52.054;8.552;2023-05-07T06:10:19;31.20;;;26.80;;
1691;SDS011;843;52.054;8.552;2023-05-07T06:12:45;30.23;;;23.07;;
1691;SDS011;843;52.054;8.552;2023-05-07T06:15:13;32.00;;;25.30;;
1691;SDS011;843;52.054;8.552;2023-05-07T06:17:39;27.63;;;23.50;;
1691;SDS011;843;52.054;8.552;2023-05-07T06:20:06;30.73;;;25.10;;
1691;SDS011;843;52.054;8.552;2023-05-07T06:22:33;29.60;;;25.03;;
1691;SDS011;843;52.054;8.552;2023-05-07T06:24:59;29.50;;;23.23;;
1691;SDS011;843;52.054;8.552;2023-05-07T06:27:26;27.80;;;23.10;;
1691;SDS011;843;52.054;8.552;2023-05-07T06:29:53;26.50;;;22.93;;
1691;SDS011;843;52.054;8.552;2023-05-07T06:32:21;30.63;;;24.83;;
1691;SDS011;843;52.054;8.552;2023-05-07T06:34:47;26.07;;;21.47;;
1691;SDS011;843;52.054;8.552;2023-05-07T06:37:13;27.80;;;23.57;;
1691;SDS011;843;52.054;8.552;2023-05-07T06:39:40;26.63;;;21.77;;
1691;SDS011;843;52.054;8.552;2023-05-07T06:42:06;25.53;;;21.20;;
1691;SDS011;843;52.054;8.552;2023-05-07T06:44:33;27.57;;;20.67;;
1691;SDS011;843;52.054;8.552;2023-05-07T06:46:59;26.97;;;21.37;;
1691;SDS011;843;52.054;8.552;2023-05-07T06:49:27;25.50;;;22.00;;
1691;SDS011;843;52.054;8.552;2023-05-07T06:51:53;24.97;;;20.07;;
1691;SDS011;843;52.054;8.552;2023-05-07T06:54:20;27.40;;;21.30;;
1691;SDS011;843;52.054;8.552;2023-05-07T06:56:47;25.50;;;20.00;;
1691;SDS011;843;52.054;8.552;2023-05-07T06:59:13;23.50;;;20.90;;
1691;SDS011;843;52.054;8.552;2023-05-07T07:01:40;26.47;;;20.00;;
1691;SDS011;843;52.054;8.552;2023-05-07T07:04:06;24.77;;;18.67;;
1691;SDS011;843;52.054;8.552;2023-05-07T07:06:34;20.23;;;17.90;;
1691;SDS011;843;52.054;8.552;2023-05-07T07:09:00;22.50;;;18.80;;
1691;SDS011;843;52.054;8.552;2023-05-07T07:11:27;22.50;;;19.40;;
1691;SDS011;843;52.054;8.552;2023-05-07T07:13:53;21.77;;;18.50;;
1691;SDS011;843;52.054;8.552;2023-05-07T07:16:20;21.07;;;17.90;;
1691;SDS011;843;52.054;8.552;2023-05-07T07:18:47;19.67;;;17.17;;
1691;SDS011;843;52.054;8.552;2023-05-07T07:21:13;17.63;;;14.07;;
1691;SDS011;843;52.054;8.552;2023-05-07T07:23:41;18.03;;;15.00;;
1691;SDS011;843;52.054;8.552;2023-05-07T07:26:07;19.90;;;15.77;;
1691;SDS011;843;52.054;8.552;2023-05-07T07:28:34;17.63;;;15.73;;
1691;SDS011;843;52.054;8.552;2023-05-07T07:31:00;19.43;;;17.37;;
1691;SDS011;843;52.054;8.552;2023-05-07T07:33:27;16.97;;;14.70;;
1691;SDS011;843;52.054;8.552;2023-05-07T07:35:53;17.67;;;15.30;;
1691;SDS011;843;52.054;8.552;2023-05-07T07:38:19;17.10;;;15.33;;
1691;SDS011;843;52.054;8.552;2023-05-07T07:40:48;19.23;;;16.63;;
1691;SDS011;843;52.054;8.552;2023-05-07T07:43:15;14.90;;;12.80;;
1691;SDS011;843;52.054;8.552;2023-05-07T07:45:41;18.53;;;15.40;;
1691;SDS011;843;52.054;8.552;2023-05-07T07:48:07;18.53;;;14.73;;
1691;SDS011;843;52.054;8.552;2023-05-07T07:50:34;18.30;;;15.13;;
1691;SDS011;843;52.054;8.552;2023-05-07T07:53:00;17.70;;;14.90;;
1691;SDS011;843;52.054;8.552;2023-05-07T07:55:27;15.53;;;13.97;;
1691;SDS011;843;52.054;8.552;2023-05-07T07:57:54;20.03;;;14.73;;
1691;SDS011;843;52.054;8.552;2023-05-07T08:00:21;17.20;;;14.23;;
1691;SDS011;843;52.054;8.552;2023-05-07T08:02:47;17.73;;;13.30;;
1691;SDS011;843;52.054;8.552;2023-05-07T08:05:14;15.87;;;14.17;;
1691;SDS011;843;52.054;8.552;2023-05-07T08:07:41;14.30;;;12.20;;
1691;SDS011;843;52.054;8.552;2023-05-07T08:10:07;16.40;;;14.67;;
1691;SDS011;843;52.054;8.552;2023-05-07T08:12:34;15.80;;;14.30;;
1691;SDS011;843;52.054;8.552;2023-05-07T08:15:02;15.77;;;13.70;;
1691;SDS011;843;52.054;8.552;2023-05-07T08:17:28;16.30;;;14.20;;
1691;SDS011;843;52.054;8.552;2023-05-07T08:19:55;15.23;;;13.33;;
1691;SDS011;843;52.054;8.552;2023-05-07T08:22:22;13.60;;;12.30;;
1691;SDS011;843;52.054;8.552;2023-05-07T08:24:48;14.80;;;13.20;;
1691;SDS011;843;52.054;8.552;2023-05-07T08:27:14;14.03;;;12.57;;
1691;SDS011;843;52.054;8.552;2023-05-07T08:29:41;13.40;;;11.97;;
1691;SDS011;843;52.054;8.552;2023-05-07T08:32:09;14.60;;;13.07;;
1691;SDS011;843;52.054;8.552;2023-05-07T08:34:35;16.37;;;13.00;;
1691;SDS011;843;52.054;8.552;2023-05-07T08:37:02;14.90;;;12.70;;
1691;SDS011;843;52.054;8.552;2023-05-07T08:39:29;16.10;;;13.53;;
1691;SDS011;843;52.054;8.552;2023-05-07T08:41:55;15.70;;;14.03;;
1691;SDS011;843;52.054;8.552;2023-05-07T08:44:23;12.63;;;11.17;;
1691;SDS011;843;52.054;8.552;2023-05-07T08:46:52;16.10;;;11.93;;
1691;SDS011;843;52.054;8.552;2023-05-07T08:49:21;14.17;;;12.37;;
1691;SDS011;843;52.054;8.552;2023-05-07T08:51:47;14.87;;;12.40;;
1691;SDS011;843;52.054;8.552;2023-05-07T08:54:15;14.20;;;12.70;;
1691;SDS011;843;52.054;8.552;2023-05-07T08:56:42;13.43;;;12.13;;
1691;SDS011;843;52.054;8.552;2023-05-07T08:59:09;14.20;;;12.70;;
1691;SDS011;843;52.054;8.552;2023-05-07T09:01:36;14.27;;;12.77;;
1691;SDS011;843;52.054;8.552;2023-05-07T09:04:03;14.67;;;13.03;;
1691;SDS011;843;52.054;8.552;2023-05-07T09:06:32;14.67;;;12.60;;
1691;SDS011;843;52.054;8.552;2023-05-07T09:08:58;13.60;;;12.10;;
1691;SDS011;843;52.054;8.552;2023-05-07T09:11:26;15.80;;;11.47;;
1691;SDS011;843;52.054;8.552;2023-05-07T09:13:53;14.63;;;13.20;;
1691;SDS011;843;52.054;8.552;2023-05-07T09:16:21;12.50;;;10.60;;
1691;SDS011;843;52.054;8.552;2023-05-07T09:18:48;14.93;;;13.53;;
1691;SDS011;843;52.054;8.552;2023-05-07T09:21:17;13.30;;;12.10;;
1691;SDS011;843;52.054;8.552;2023-05-07T09:23:44;12.23;;;10.63;;
1691;SDS011;843;52.054;8.552;2023-05-07T09:26:11;11.00;;;9.87;;
1691;SDS011;843;52.054;8.552;2023-05-07T09:28:38;13.40;;;11.53;;
1691;SDS011;843;52.054;8.552;2023-05-07T09:31:04;11.73;;;10.00;;
1691;SDS011;843;52.054;8.552;2023-05-07T09:33:31;12.90;;;11.60;;
1691;SDS011;843;52.054;8.552;2023-05-07T09:35:57;13.00;;;11.70;;
1691;SDS011;843;52.054;8.552;2023-05-07T09:38:24;14.23;;;12.67;;
1691;SDS011;843;52.054;8.552;2023-05-07T09:41:02;14.97;;;10.87;;
1691;SDS011;843;52.054;8.552;2023-05-07T09:43:31;15.13;;;11.07;;
1691;SDS011;843;52.054;8.552;2023-05-07T09:45:58;12.30;;;10.40;;
1691;SDS011;843;52.054;8.552;2023-05-07T09:48:25;11.80;;;10.50;;
1691;SDS011;843;52.054;8.552;2023-05-07T09:50:51;13.03;;;10.30;;
1691;SDS011;843;52.054;8.552;2023-05-07T09:53:21;12.93;;;11.50;;
1691;SDS011;843;52.054;8.552;2023-05-07T09:55:48;10.83;;;9.80;;
1691;SDS011;843;52.054;8.552;2023-05-07T09:58:17;12.70;;;11.40;;
1691;SDS011;843;52.054;8.552;2023-05-07T10:00:44;12.23;;;11.00;;
1691;SDS011;843;52.054;8.552;2023-05-07T10:03:10;11.93;;;10.73;;
1691;SDS011;843;52.054;8.552;2023-05-07T10:05:37;13.03;;;11.40;;
1691;SDS011;843;52.054;8.552;2023-05-07T10:08:05;12.03;;;10.10;;
1691;SDS011;843;52.054;8.552;2023-05-07T10:10:32;13.07;;;11.30;;
1691;SDS011;843;52.054;8.552;2023-05-07T10:12:58;15.40;;;12.17;;
1691;SDS011;843;52.054;8.552;2023-05-07T10:15:26;11.83;;;10.70;;
1691;SDS011;843;52.054;8.552;2023-05-07T10:17:54;12.20;;;10.90;;
1691;SDS011;843;52.054;8.552;2023-05-07T10:20:21;12.90;;;11.57;;
1691;SDS011;843;52.054;8.552;2023-05-07T10:22:47;13.70;;;10.17;;
1691;SDS011;843;52.054;8.552;2023-05-07T10:25:16;12.00;;;10.80;;
1691;SDS011;843;52.054;8.552;2023-05-07T10:27:44;13.47;;;11.23;;
1691;SDS011;843;52.054;8.552;2023-05-07T10:30:13;12.87;;;10.30;;
1691;SDS011;843;52.054;8.552;2023-05-07T10:32:43;12.80;;;10.53;;
1691;SDS011;843;52.054;8.552;2023-05-07T10:35:14;12.60;;;11.30;;
1691;SDS011;843;52.054;8.552;2023-05-07T10:37:41;12.30;;;11.20;;
1691;SDS011;843;52.054;8.552;2023-05-07T10:40:08;10.17;;;9.10;;
1691;SDS011;843;52.054;8.552;2023-05-07T10:42:35;11.87;;;10.77;;
1691;SDS011;843;52.054;8.552;2023-05-07T10:45:11;12.60;;;11.40;;
1691;SDS011;843;52.054;8.552;2023-05-07T10:47:47;11.90;;;10.60;;
1691;SDS011;843;52.054;8.552;2023-05-07T10:50:31;10.10;;;9.20;;
1691;SDS011;843;52.054;8.552;2023-05-07T10:55:52;11.23;;;10.13;;
1691;SDS011;843;52.054;8.552;2023-05-07T10:58:38;10.23;;;9.13;;
1691;SDS011;843;52.054;8.552;2023-05-07T11:01:04;10.80;;;9.70;;
1691;SDS011;843;52.054;8.552;2023-05-07T11:03:32;9.70;;;8.70;;
1691;SDS011;843;52.054;8.552;2023-05-07T11:06:08;11.40;;;9.90;;
1691;SDS011;843;52.054;8.552;2023-05-07T11:11:16;11.50;;;10.40;;
1691;SDS011;843;52.054;8.552;2023-05-07T11:13:43;11.50;;;10.30;;
1691;SDS011;843;52.054;8.552;2023-05-07T11:16:16;11.70;;;8.73;;
1691;SDS011;843;52.054;8.552;2023-05-07T11:18:47;10.93;;;8.93;;
1691;SDS011;843;52.054;8.552;2023-05-07T11:23:59;11.30;;;10.20;;
1691;SDS011;843;52.054;8.552;2023-05-07T11:26:27;11.20;;;10.10;;
1691;SDS011;843;52.054;8.552;2023-05-07T11:28:53;10.10;;;9.10;;
1691;SDS011;843;52.054;8.552;2023-05-07T11:31:21;10.23;;;9.23;;
1691;SDS011;843;52.054;8.552;2023-05-07T11:33:49;9.00;;;8.10;;
1691;SDS011;843;52.054;8.552;2023-05-07T11:36:16;9.87;;;8.80;;
1691;SDS011;843;52.054;8.552;2023-05-07T11:38:44;11.47;;;8.90;;
1691;SDS011;843;52.054;8.552;2023-05-07T11:41:10;9.80;;;8.90;;
1691;SDS011;843;52.054;8.552;2023-05-07T11:43:37;8.43;;;7.63;;
1691;SDS011;843;52.054;8.552;2023-05-07T11:46:05;8.90;;;8.00;;
1691;SDS011;843;52.054;8.552;2023-05-07T11:48:32;8.47;;;7.57;;
1691;SDS011;843;52.054;8.552;2023-05-07T11:51:01;8.23;;;7.43;;
1691;SDS011;843;52.054;8.552;2023-05-07T11:53:28;7.70;;;7.00;;
1691;SDS011;843;52.054;8.552;2023-05-07T11:56:00;8.53;;;7.70;;
1691;SDS011;843;52.054;8.552;2023-05-07T11:58:31;9.77;;;8.10;;
1691;SDS011;843;52.054;8.552;2023-05-07T12:00:58;7.20;;;6.50;;
1691;SDS011;843;52.054;8.552;2023-05-07T12:03:24;8.27;;;7.40;;
1691;SDS011;843;52.054;8.552;2023-05-07T12:05:51;7.40;;;6.70;;
1691;SDS011;843;52.054;8.552;2023-05-07T12:08:19;9.20;;;7.83;;
1691;SDS011;843;52.054;8.552;2023-05-07T12:10:46;7.20;;;6.40;;
1691;SDS011;843;52.054;8.552;2023-05-07T12:13:14;8.43;;;7.07;;
1691;SDS011;843;52.054;8.552;2023-05-07T12:15:40;6.60;;;5.90;;
1691;SDS011;843;52.054;8.552;2023-05-07T12:18:07;6.00;;;5.50;;
1691;SDS011;843;52.054;8.552;2023-05-07T12:20:34;7.87;;;6.83;;
1691;SDS011;843;52.054;8.552;2023-05-07T12:23:00;8.00;;;6.50;;
1691;SDS011;843;52.054;8.552;2023-05-07T12:25:30;7.97;;;6.67;;
1691;SDS011;843;52.054;8.552;2023-05-07T12:27:57;7.80;;;7.03;;
1691;SDS011;843;52.054;8.552;2023-05-07T12:30:26;6.40;;;5.80;;
1691;SDS011;843;52.054;8.552;2023-05-07T12:32:52;6.90;;;6.20;;
1691;SDS011;843;52.054;8.552;2023-05-07T12:35:25;6.90;;;6.30;;
1691;SDS011;843;52.054;8.552;2023-05-07T12:37:54;5.90;;;5.30;;
1691;SDS011;843;52.054;8.552;2023-05-07T12:40:20;6.40;;;5.53;;
1691;SDS011;843;52.054;8.552;2023-05-07T12:42:48;6.43;;;5.83;;
1691;SDS011;843;52.054;8.552;2023-05-07T12:45:18;6.43;;;5.83;;
1691;SDS011;843;52.054;8.552;2023-05-07T12:47:45;6.47;;;5.87;;
1691;SDS011;843;52.054;8.552;2023-05-07T12:50:12;6.83;;;6.13;;
1691;SDS011;843;52.054;8.552;2023-05-07T12:52:39;6.13;;;5.53;;
1691;SDS011;843;52.054;8.552;2023-05-07T12:55:05;6.10;;;5.50;;
1691;SDS011;843;52.054;8.552;2023-05-07T12:57:37;6.60;;;6.00;;
1691;SDS011;843;52.054;8.552;2023-05-07T13:00:06;7.43;;;6.73;;
1691;SDS011;843;52.054;8.552;2023-05-07T13:02:32;6.70;;;5.57;;
1691;SDS011;843;52.054;8.552;2023-05-07T13:04:59;6.27;;;5.77;;
1691;SDS011;843;52.054;8.552;2023-05-07T13:07:26;6.63;;;5.97;;
1691;SDS011;843;52.054;8.552;2023-05-07T13:09:52;5.27;;;4.77;;
1691;SDS011;843;52.054;8.552;2023-05-07T13:12:19;5.83;;;5.33;;
1691;SDS011;843;52.054;8.552;2023-05-07T13:14:45;5.50;;;5.00;;
1691;SDS011;843;52.054;8.552;2023-05-07T13:17:13;6.63;;;5.60;;
1691;SDS011;843;52.054;8.552;2023-05-07T13:19:40;9.60;;;5.37;;
1691;SDS011;843;52.054;8.552;2023-05-07T13:22:07;5.93;;;5.43;;
1691;SDS011;843;52.054;8.552;2023-05-07T13:24:33;7.03;;;5.80;;
1691;SDS011;843;52.054;8.552;2023-05-07T13:26:59;6.63;;;6.03;;
1691;SDS011;843;52.054;8.552;2023-05-07T13:29:26;8.00;;;6.90;;
1691;SDS011;843;52.054;8.552;2023-05-07T13:31:55;7.13;;;6.20;;
1691;SDS011;843;52.054;8.552;2023-05-07T13:34:24;7.27;;;6.47;;
1691;SDS011;843;52.054;8.552;2023-05-07T13:36:50;8.17;;;6.10;;
1691;SDS011;843;52.054;8.552;2023-05-07T13:39:17;7.07;;;5.60;;
1691;SDS011;843;52.054;8.552;2023-05-07T13:41:43;6.77;;;6.17;;
1691;SDS011;843;52.054;8.552;2023-05-07T13:44:09;8.30;;;7.40;;
1691;SDS011;843;52.054;8.552;2023-05-07T13:46:36;7.17;;;6.07;;
1691;SDS011;843;52.054;8.552;2023-05-07T13:49:03;6.23;;;5.63;;
1691;SDS011;843;52.054;8.552;2023-05-07T13:51:31;7.90;;;5.30;;
1691;SDS011;843;52.054;8.552;2023-05-07T13:53:57;6.93;;;6.03;;
1691;SDS011;843;52.054;8.552;2023-05-07T13:56:24;6.87;;;6.27;;
1691;SDS011;843;52.054;8.552;2023-05-07T13:58:51;6.67;;;6.07;;
1691;SDS011;843;52.054;8.552;2023-05-07T14:01:17;6.90;;;6.30;;
1691;SDS011;843;52.054;8.552;2023-05-07T14:03:43;7.13;;;6.27;;
1691;SDS011;843;52.054;8.552;2023-05-07T14:06:10;7.43;;;6.70;;
1691;SDS011;843;52.054;8.552;2023-05-07T14:08:38;7.77;;;6.97;;
1691;SDS011;843;52.054;8.552;2023-05-07T14:11:04;6.33;;;5.83;;
1691;SDS011;843;52.054;8.552;2023-05-07T14:13:31;6.80;;;6.10;;
1691;SDS011;843;52.054;8.552;2023-05-07T14:16:00;7.00;;;6.40;;
1691;SDS011;843;52.054;8.552;2023-05-07T14:18:27;8.53;;;7.47;;
1691;SDS011;843;52.054;8.552;2023-05-07T14:20:54;7.50;;;6.80;;
1691;SDS011;843;52.054;8.552;2023-05-07T14:23:20;9.27;;;8.23;;
1691;SDS011;843;52.054;8.552;2023-05-07T14:25:52;7.30;;;6.60;;
1691;SDS011;843;52.054;8.552;2023-05-07T14:28:19;9.07;;;8.10;;
1691;SDS011;843;52.054;8.552;2023-05-07T14:30:45;8.10;;;7.00;;
1691;SDS011;843;52.054;8.552;2023-05-07T14:33:12;9.10;;;7.37;;
1691;SDS011;843;52.054;8.552;2023-05-07T14:35:38;8.87;;;7.43;;
1691;SDS011;843;52.054;8.552;2023-05-07T14:38:05;10.27;;;9.37;;
1691;SDS011;843;52.054;8.552;2023-05-07T14:40:31;8.63;;;7.83;;
1691;SDS011;843;52.054;8.552;2023-05-07T14:42:59;8.93;;;7.80;;
1691;SDS011;843;52.054;8.552;2023-05-07T14:45:26;9.10;;;8.20;;
1691;SDS011;843;52.054;8.552;2023-05-07T14:47:52;8.90;;;7.50;;
1691;SDS011;843;52.054;8.552;2023-05-07T14:50:19;10.80;;;7.90;;
1691;SDS011;843;52.054;8.552;2023-05-07T14:52:45;8.73;;;8.00;;
1691;SDS011;843;52.054;8.552;2023-05-07T14:55:12;9.03;;;8.13;;
1691;SDS011;843;52.054;8.552;2023-05-07T14:57:38;10.87;;;8.97;;
1691;SDS011;843;52.054;8.552;2023-05-07T15:00:07;9.53;;;8.53;;
1691;SDS011;843;52.054;8.552;2023-05-07T15:02:34;10.73;;;9.60;;
1691;SDS011;843;52.054;8.552;2023-05-07T15:05:01;9.33;;;8.53;;
1691;SDS011;843;52.054;8.552;2023-05-07T15:07:28;10.10;;;8.60;;
1691;SDS011;843;52.054;8.552;2023-05-07T15:09:54;9.83;;;8.83;;
1691;SDS011;843;52.054;8.552;2023-05-07T15:12:21;9.97;;;8.97;;
1691;SDS011;843;52.054;8.552;2023-05-07T15:14:48;9.20;;;8.40;;